sensor_id;sensor_type;location;lat;lon;timestamp;temperature;humidity
54202;DHT22;40108;53.152;5.844;2023-05-16T04:42:22;7.40;88.90
54202;DHT22;40108;53.152;5.844;2023-05-16T04:45:07;7.50;88.90
54202;DHT22;40108;53.152;5.844;2023-05-16T04:47:35;7.60;88.90
54202;DHT22;40108;53.152;5.844;2023-05-16T04:50:05;7.60;88.90
54202;DHT22;40108;53.152;5.844;2023-05-16T04:52:36;7.70;88.80
54202;DHT22;40108;53.152;5.844;2023-05-16T04:55:17;7.70;89.00
54202;DHT22;40108;53.152;5.844;2023-05-16T04:57:43;7.70;89.00
54202;DHT22;40108;53.152;5.844;2023-05-16T05:00:12;7.80;89.00
54202;DHT22;40108;53.152;5.844;2023-05-16T05:02:45;7.90;88.90
54202;DHT22;40108;53.152;5.844;2023-05-16T05:05:41;7.90;88.90
54202;DHT22;40108;53.152;5.844;2023-05-16T05:08:35;8.00;88.70
54202;DHT22;40108;53.152;5.844;2023-05-16T05:11:13;8.10;88.70
54202;DHT22;40108;53.152;5.844;2023-05-16T05:14:03;8.20;88.60
54202;DHT22;40108;53.152;5.844;2023-05-16T05:16:39;8.30;88.40
54202;DHT22;40108;53.152;5.844;2023-05-16T05:19:18;8.40;88.10
54202;DHT22;40108;53.152;5.844;2023-05-16T05:21:50;8.40;87.90
54202;DHT22;40108;53.152;5.844;2023-05-16T05:24:21;8.50;87.60
54202;DHT22;40108;53.152;5.844;2023-05-16T05:27:14;8.60;86.80
54202;DHT22;40108;53.152;5.844;2023-05-16T05:29:45;8.70;86.50
54202;DHT22;40108;53.152;5.844;2023-05-16T05:32:28;8.80;86.70
54202;DHT22;40108;53.152;5.844;2023-05-16T05:34:57;8.90;86.40
54202;DHT22;40108;53.152;5.844;2023-05-16T05:37:26;8.90;86.30
54202;DHT22;40108;53.152;5.844;2023-05-16T05:40:23;9.00;86.00
54202;DHT22;40108;53.152;5.844;2023-05-16T05:43:01;9.20;85.90
54202;DHT22;40108;53.152;5.844;2023-05-16T05:46:06;9.20;85.30
54202;DHT22;40108;53.152;5.844;2023-05-16T05:48:49;9.40;85.10
54202;DHT22;40108;53.152;5.844;2023-05-16T05:51:23;9.40;85.10
54202;DHT22;40108;53.152;5.844;2023-05-16T05:54:30;9.40;85.40
54202;DHT22;40108;53.152;5.844;2023-05-16T05:58:01;9.50;85.00
54202;DHT22;40108;53.152;5.844;2023-05-16T06:03:49;9.50;82.90
54202;DHT22;40108;53.152;5.844;2023-05-16T06:06:16;9.50;83.80
54202;DHT22;40108;53.152;5.844;2023-05-16T06:08:50;9.50;83.60
54202;DHT22;40108;53.152;5.844;2023-05-16T06:11:32;9.50;84.10
54202;DHT22;40108;53.152;5.844;2023-05-16T06:13:58;9.50;83.90
54202;DHT22;40108;53.152;5.844;2023-05-16T06:16:32;9.50;84.00
54202;DHT22;40108;53.152;5.844;2023-05-16T06:19:26;9.60;84.40
54202;DHT22;40108;53.152;5.844;2023-05-16T06:21:55;9.60;84.40
54202;DHT22;40108;53.152;5.844;2023-05-16T06:24:57;9.60;84.30
54202;DHT22;40108;53.152;5.844;2023-05-16T06:27:25;9.60;84.40
54202;DHT22;40108;53.152;5.844;2023-05-16T06:29:51;9.60;84.00
54202;DHT22;40108;53.152;5.844;2023-05-16T06:32:40;9.50;84.00
54202;DHT22;40108;53.152;5.844;2023-05-16T06:35:15;9.50;84.10
54202;DHT22;40108;53.152;5.844;2023-05-16T06:38:05;9.60;84.10
54202;DHT22;40108;53.152;5.844;2023-05-16T06:40:36;9.70;84.70
54202;DHT22;40108;53.152;5.844;2023-05-16T06:43:27;10.00;84.70
54202;DHT22;40108;53.152;5.844;2023-05-16T06:46:24;10.60;83.60
54202;DHT22;40108;53.152;5.844;2023-05-16T06:49:25;11.20;82.30
54202;DHT22;40108;53.152;5.844;2023-05-16T06:51:54;11.70;80.00
54202;DHT22;40108;53.152;5.844;2023-05-16T06:54:31;11.90;77.10
54202;DHT22;40108;53.152;5.844;2023-05-16T06:56:59;12.10;76.10
54202;DHT22;40108;53.152;5.844;2023-05-16T06:59:27;12.10;74.90
54202;DHT22;40108;53.152;5.844;2023-05-16T07:02:16;11.70;74.30
54202;DHT22;40108;53.152;5.844;2023-05-16T07:04:42;11.60;74.60
54202;DHT22;40108;53.152;5.844;2023-05-16T07:07:16;12.00;74.70
54202;DHT22;40108;53.152;5.844;2023-05-16T07:09:41;12.30;75.20
54202;DHT22;40108;53.152;5.844;2023-05-16T07:12:32;12.60;73.00
54202;DHT22;40108;53.152;5.844;2023-05-16T07:15:06;12.90;72.10
54202;DHT22;40108;53.152;5.844;2023-05-16T07:17:41;13.20;72.50
54202;DHT22;40108;53.152;5.844;2023-05-16T07:20:17;13.50;70.50
54202;DHT22;40108;53.152;5.844;2023-05-16T07:23:00;13.70;71.60
54202;DHT22;40108;53.152;5.844;2023-05-16T07:25:41;14.10;70.80
54202;DHT22;40108;53.152;5.844;2023-05-16T07:28:17;14.00;67.60
54202;DHT22;40108;53.152;5.844;2023-05-16T07:31:10;13.60;66.90
54202;DHT22;40108;53.152;5.844;2023-05-16T07:36:47;12.90;70.50
54202;DHT22;40108;53.152;5.844;2023-05-16T07:39:31;13.00;70.20
54202;DHT22;40108;53.152;5.844;2023-05-16T07:42:07;12.70;69.70
54202;DHT22;40108;53.152;5.844;2023-05-16T07:45:07;12.40;71.80
54202;DHT22;40108;53.152;5.844;2023-05-16T07:48:16;12.30;74.10
54202;DHT22;40108;53.152;5.844;2023-05-16T07:50:45;12.70;73.80
54202;DHT22;40108;53.152;5.844;2023-05-16T07:53:23;13.00;74.20
54202;DHT22;40108;53.152;5.844;2023-05-16T07:56:08;13.10;72.80
54202;DHT22;40108;53.152;5.844;2023-05-16T07:59:04;12.80;72.50
54202;DHT22;40108;53.152;5.844;2023-05-16T08:01:46;12.50;72.90
54202;DHT22;40108;53.152;5.844;2023-05-16T08:04:30;12.10;73.60
54202;DHT22;40108;53.152;5.844;2023-05-16T08:07:01;11.90;75.00
54202;DHT22;40108;53.152;5.844;2023-05-16T08:09:37;12.10;75.80
54202;DHT22;40108;53.152;5.844;2023-05-16T08:12:18;12.70;75.30
54202;DHT22;40108;53.152;5.844;2023-05-16T08:15:15;13.40;73.70
54202;DHT22;40108;53.152;5.844;2023-05-16T08:20:45;13.60;69.40
54202;DHT22;40108;53.152;5.844;2023-05-16T08:23:13;13.30;69.30
54202;DHT22;40108;53.152;5.844;2023-05-16T08:25:54;13.50;69.80
54202;DHT22;40108;53.152;5.844;2023-05-16T08:28:36;13.60;68.60
54202;DHT22;40108;53.152;5.844;2023-05-16T08:31:15;13.30;68.30
54202;DHT22;40108;53.152;5.844;2023-05-16T08:33:41;13.20;69.20
54202;DHT22;40108;53.152;5.844;2023-05-16T08:36:32;13.70;70.10
54202;DHT22;40108;53.152;5.844;2023-05-16T08:39:03;14.30;68.10
54202;DHT22;40108;53.152;5.844;2023-05-16T08:41:37;14.40;66.20
54202;DHT22;40108;53.152;5.844;2023-05-16T08:44:07;14.10;67.10
54202;DHT22;40108;53.152;5.844;2023-05-16T08:47:13;13.80;68.70
54202;DHT22;40108;53.152;5.844;2023-05-16T08:49:49;13.30;68.20
54202;DHT22;40108;53.152;5.844;2023-05-16T08:52:37;13.10;69.60
54202;DHT22;40108;53.152;5.844;2023-05-16T08:55:11;12.70;70.30
54202;DHT22;40108;53.152;5.844;2023-05-16T08:57:48;12.70;71.10
54202;DHT22;40108;53.152;5.844;2023-05-16T09:00:37;13.10;71.60
54202;DHT22;40108;53.152;5.844;2023-05-16T09:03:14;13.50;69.20
54202;DHT22;40108;53.152;5.844;2023-05-16T09:05:52;13.90;69.10
54202;DHT22;40108;53.152;5.844;2023-05-16T09:08:20;14.10;65.70
54202;DHT22;40108;53.152;5.844;2023-05-16T09:11:11;14.00;65.70
54202;DHT22;40108;53.152;5.844;2023-05-16T09:13:51;13.70;65.70
54202;DHT22;40108;53.152;5.844;2023-05-16T09:16:19;13.50;65.80
54202;DHT22;40108;53.152;5.844;2023-05-16T09:18:58;13.60;66.90
54202;DHT22;40108;53.152;5.844;2023-05-16T09:21:42;13.90;65.30
54202;DHT22;40108;53.152;5.844;2023-05-16T09:24:24;14.20;65.00
54202;DHT22;40108;53.152;5.844;2023-05-16T09:27:17;14.10;64.70
54202;DHT22;40108;53.152;5.844;2023-05-16T09:29:49;13.70;64.30
54202;DHT22;40108;53.152;5.844;2023-05-16T09:32:26;13.50;64.10
54202;DHT22;40108;53.152;5.844;2023-05-16T09:35:12;13.60;65.30
54202;DHT22;40108;53.152;5.844;2023-05-16T09:37:59;13.90;64.70
54202;DHT22;40108;53.152;5.844;2023-05-16T09:40:27;14.00;65.00
54202;DHT22;40108;53.152;5.844;2023-05-16T09:43:05;14.10;64.90
54202;DHT22;40108;53.152;5.844;2023-05-16T09:45:46;14.00;64.40
54202;DHT22;40108;53.152;5.844;2023-05-16T09:48:27;13.90;65.10
54202;DHT22;40108;53.152;5.844;2023-05-16T09:50:55;13.70;64.90
54202;DHT22;40108;53.152;5.844;2023-05-16T09:53:33;13.60;64.00
54202;DHT22;40108;53.152;5.844;2023-05-16T09:56:13;13.60;65.20
54202;DHT22;40108;53.152;5.844;2023-05-16T09:58:41;13.40;66.10
54202;DHT22;40108;53.152;5.844;2023-05-16T10:01:27;13.30;66.50
54202;DHT22;40108;53.152;5.844;2023-05-16T10:04:07;13.50;67.80
54202;DHT22;40108;53.152;5.844;2023-05-16T10:06:43;13.70;67.20
54202;DHT22;40108;53.152;5.844;2023-05-16T10:09:20;13.90;67.10
54202;DHT22;40108;53.152;5.844;2023-05-16T10:11:53;14.10;66.00
54202;DHT22;40108;53.152;5.844;2023-05-16T10:14:25;14.10;63.40
54202;DHT22;40108;53.152;5.844;2023-05-16T10:17:02;14.10;63.60
54202;DHT22;40108;53.152;5.844;2023-05-16T10:19:57;14.20;64.00
54202;DHT22;40108;53.152;5.844;2023-05-16T10:22:54;14.40;64.60
54202;DHT22;40108;53.152;5.844;2023-05-16T10:25:38;14.60;63.40
54202;DHT22;40108;53.152;5.844;2023-05-16T10:31:11;14.60;64.00
54202;DHT22;40108;53.152;5.844;2023-05-16T10:33:59;14.40;65.10
54202;DHT22;40108;53.152;5.844;2023-05-16T10:36:36;14.20;65.90
54202;DHT22;40108;53.152;5.844;2023-05-16T10:39:11;14.00;66.00
54202;DHT22;40108;53.152;5.844;2023-05-16T10:41:47;13.70;67.60
54202;DHT22;40108;53.152;5.844;2023-05-16T10:44:32;13.40;69.70
54202;DHT22;40108;53.152;5.844;2023-05-16T10:49:55;12.70;73.50
54202;DHT22;40108;53.152;5.844;2023-05-16T10:52:32;12.70;74.70
54202;DHT22;40108;53.152;5.844;2023-05-16T10:55:13;12.90;75.80
54202;DHT22;40108;53.152;5.844;2023-05-16T10:57:46;12.90;75.50
54202;DHT22;40108;53.152;5.844;2023-05-16T11:00:35;13.00;75.90
54202;DHT22;40108;53.152;5.844;2023-05-16T11:03:24;13.10;74.40
54202;DHT22;40108;53.152;5.844;2023-05-16T11:06:02;13.30;74.70
54202;DHT22;40108;53.152;5.844;2023-05-16T11:08:51;13.50;72.80
54202;DHT22;40108;53.152;5.844;2023-05-16T11:11:53;13.70;70.60
54202;DHT22;40108;53.152;5.844;2023-05-16T11:17:10;14.50;70.40
54202;DHT22;40108;53.152;5.844;2023-05-16T11:19:47;14.70;67.00
54202;DHT22;40108;53.152;5.844;2023-05-16T11:23:16;14.80;65.50
54202;DHT22;40108;53.152;5.844;2023-05-16T11:25:40;14.90;66.00
54202;DHT22;40108;53.152;5.844;2023-05-16T11:28:21;15.00;64.20
54202;DHT22;40108;53.152;5.844;2023-05-16T11:34:13;15.20;65.60
54202;DHT22;40108;53.152;5.844;2023-05-16T11:36:54;15.30;62.80
54202;DHT22;40108;53.152;5.844;2023-05-16T11:40:17;15.10;61.50
54202;DHT22;40108;53.152;5.844;2023-05-16T11:42:49;14.70;64.10
54202;DHT22;40108;53.152;5.844;2023-05-16T11:45:21;14.60;63.40
54202;DHT22;40108;53.152;5.844;2023-05-16T11:48:00;14.60;62.50
54202;DHT22;40108;53.152;5.844;2023-05-16T11:50:29;14.60;64.40
54202;DHT22;40108;53.152;5.844;2023-05-16T11:53:03;14.80;65.00
54202;DHT22;40108;53.152;5.844;2023-05-16T11:55:58;14.90;64.80
54202;DHT22;40108;53.152;5.844;2023-05-16T11:58:46;15.00;63.60
54202;DHT22;40108;53.152;5.844;2023-05-16T12:01:32;15.00;62.90
54202;DHT22;40108;53.152;5.844;2023-05-16T12:04:00;14.90;61.60
54202;DHT22;40108;53.152;5.844;2023-05-16T12:06:40;14.80;62.00
54202;DHT22;40108;53.152;5.844;2023-05-16T12:09:13;14.80;61.90
54202;DHT22;40108;53.152;5.844;2023-05-16T12:11:43;14.70;60.80
54202;DHT22;40108;53.152;5.844;2023-05-16T12:14:21;14.60;60.20
54202;DHT22;40108;53.152;5.844;2023-05-16T12:16:56;14.80;62.60
54202;DHT22;40108;53.152;5.844;2023-05-16T12:19:50;14.80;59.80
54202;DHT22;40108;53.152;5.844;2023-05-16T12:22:16;14.80;57.80
54202;DHT22;40108;53.152;5.844;2023-05-16T12:24:53;14.70;58.50
54202;DHT22;40108;53.152;5.844;2023-05-16T12:27:27;14.70;59.40
54202;DHT22;40108;53.152;5.844;2023-05-16T12:29:53;14.60;60.60
54202;DHT22;40108;53.152;5.844;2023-05-16T12:32:41;14.60;59.60
54202;DHT22;40108;53.152;5.844;2023-05-16T12:35:20;14.50;60.50
54202;DHT22;40108;53.152;5.844;2023-05-16T12:38:25;14.40;60.60
54202;DHT22;40108;53.152;5.844;2023-05-16T12:41:15;14.20;60.80
54202;DHT22;40108;53.152;5.844;2023-05-16T12:44:13;14.10;61.50
54202;DHT22;40108;53.152;5.844;2023-05-16T12:49:37;14.10;64.80
54202;DHT22;40108;53.152;5.844;2023-05-16T12:52:16;14.20;64.90
54202;DHT22;40108;53.152;5.844;2023-05-16T12:55:12;14.30;64.40
54202;DHT22;40108;53.152;5.844;2023-05-16T12:57:44;14.40;64.00
54202;DHT22;40108;53.152;5.844;2023-05-16T13:00:20;14.30;63.60
54202;DHT22;40108;53.152;5.844;2023-05-16T13:03:19;14.30;65.00
54202;DHT22;40108;53.152;5.844;2023-05-16T13:05:50;14.50;64.60
54202;DHT22;40108;53.152;5.844;2023-05-16T13:08:22;14.60;61.50
54202;DHT22;40108;53.152;5.844;2023-05-16T13:10:56;14.40;60.20
54202;DHT22;40108;53.152;5.844;2023-05-16T13:13:35;14.20;61.60
54202;DHT22;40108;53.152;5.844;2023-05-16T13:16:09;14.10;62.10
54202;DHT22;40108;53.152;5.844;2023-05-16T13:18:55;14.10;63.00
54202;DHT22;40108;53.152;5.844;2023-05-16T13:21:31;14.20;64.20
54202;DHT22;40108;53.152;5.844;2023-05-16T13:23:57;14.20;63.50
54202;DHT22;40108;53.152;5.844;2023-05-16T13:26:41;14.20;63.90
54202;DHT22;40108;53.152;5.844;2023-05-16T13:29:29;14.20;62.50
54202;DHT22;40108;53.152;5.844;2023-05-16T13:32:06;14.10;62.70
54202;DHT22;40108;53.152;5.844;2023-05-16T13:34:37;14.10;62.50
54202;DHT22;40108;53.152;5.844;2023-05-16T13:37:06;14.00;62.60
54202;DHT22;40108;53.152;5.844;2023-05-16T13:39:44;14.00;64.10
54202;DHT22;40108;53.152;5.844;2023-05-16T13:43:02;14.10;62.80
54202;DHT22;40108;53.152;5.844;2023-05-16T13:45:31;14.00;62.20
54202;DHT22;40108;53.152;5.844;2023-05-16T13:48:02;14.10;63.50
54202;DHT22;40108;53.152;5.844;2023-05-16T13:50:30;14.10;63.00
54202;DHT22;40108;53.152;5.844;2023-05-16T13:53:10;14.10;63.00
54202;DHT22;40108;53.152;5.844;2023-05-16T13:55:41;14.10;62.60
54202;DHT22;40108;53.152;5.844;2023-05-16T14:01:55;14.00;63.50
54202;DHT22;40108;53.152;5.844;2023-05-16T14:04:21;13.90;62.80
54202;DHT22;40108;53.152;5.844;2023-05-16T14:06:47;13.90;63.50
54202;DHT22;40108;53.152;5.844;2023-05-16T14:09:13;13.90;63.20
54202;DHT22;40108;53.152;5.844;2023-05-16T14:11:39;13.90;63.00
54202;DHT22;40108;53.152;5.844;2023-05-16T14:14:05;13.90;63.30
54202;DHT22;40108;53.152;5.844;2023-05-16T14:16:31;13.90;63.00
54202;DHT22;40108;53.152;5.844;2023-05-16T14:18:57;13.90;63.20
54202;DHT22;40108;53.152;5.844;2023-05-16T14:21:26;13.90;63.60
54202;DHT22;40108;53.152;5.844;2023-05-16T14:23:51;13.90;63.00
54202;DHT22;40108;53.152;5.844;2023-05-16T14:26:20;13.80;63.80
54202;DHT22;40108;53.152;5.844;2023-05-16T14:28:52;13.80;63.50
54202;DHT22;40108;53.152;5.844;2023-05-16T14:31:20;13.80;63.00
54202;DHT22;40108;53.152;5.844;2023-05-16T14:33:46;13.70;63.90
54202;DHT22;40108;53.152;5.844;2023-05-16T14:36:12;13.70;63.70
54202;DHT22;40108;53.152;5.844;2023-05-16T14:38:38;13.70;63.10
54202;DHT22;40108;53.152;5.844;2023-05-16T14:41:04;13.60;63.20
54202;DHT22;40108;53.152;5.844;2023-05-16T14:43:30;13.60;62.70
54202;DHT22;40108;53.152;5.844;2023-05-16T14:45:56;13.60;63.70
54202;DHT22;40108;53.152;5.844;2023-05-16T14:48:22;13.60;64.70
54202;DHT22;40108;53.152;5.844;2023-05-16T14:50:56;13.60;64.10
54202;DHT22;40108;53.152;5.844;2023-05-16T14:53:28;13.50;62.60
54202;DHT22;40108;53.152;5.844;2023-05-16T15:04:05;13.20;64.40
54202;DHT22;40108;53.152;5.844;2023-05-16T15:06:30;13.20;65.60
54202;DHT22;40108;53.152;5.844;2023-05-16T15:08:56;13.00;68.90
54202;DHT22;40108;53.152;5.844;2023-05-16T15:14:37;12.60;72.50
54202;DHT22;40108;53.152;5.844;2023-05-16T15:17:10;12.40;73.10
54202;DHT22;40108;53.152;5.844;2023-05-16T16:02:40;12.60;71.30
54202;DHT22;40108;53.152;5.844;2023-05-16T16:05:09;12.70;72.00
54202;DHT22;40108;53.152;5.844;2023-05-16T16:18:24;12.90;70.50
54202;DHT22;40108;53.152;5.844;2023-05-16T16:36:01;12.90;72.40
54202;DHT22;40108;53.152;5.844;2023-05-16T16:42:15;13.00;72.20
54202;DHT22;40108;53.152;5.844;2023-05-16T16:44:41;13.00;73.10
54202;DHT22;40108;53.152;5.844;2023-05-16T16:47:06;13.00;73.20
54202;DHT22;40108;53.152;5.844;2023-05-16T16:49:42;13.00;73.80
54202;DHT22;40108;53.152;5.844;2023-05-16T16:55:51;12.90;73.50
54202;DHT22;40108;53.152;5.844;2023-05-16T16:58:17;12.80;72.90
54202;DHT22;40108;53.152;5.844;2023-05-16T17:04:27;12.70;71.70
54202;DHT22;40108;53.152;5.844;2023-05-16T17:06:55;12.60;71.90
54202;DHT22;40108;53.152;5.844;2023-05-16T17:13:02;12.60;70.60
54202;DHT22;40108;53.152;5.844;2023-05-16T17:15:31;12.60;71.20
54202;DHT22;40108;53.152;5.844;2023-05-16T17:18:00;12.60;71.50
54202;DHT22;40108;53.152;5.844;2023-05-16T17:20:28;12.50;71.90
54202;DHT22;40108;53.152;5.844;2023-05-16T17:22:56;12.50;71.40
54202;DHT22;40108;53.152;5.844;2023-05-16T17:25:22;12.50;72.20
54202;DHT22;40108;53.152;5.844;2023-05-16T17:27:47;12.50;73.00
54202;DHT22;40108;53.152;5.844;2023-05-16T17:33:26;12.50;73.70
54202;DHT22;40108;53.152;5.844;2023-05-16T17:36:18;12.40;72.60
54202;DHT22;40108;53.152;5.844;2023-05-16T17:39:06;12.40;72.80
54202;DHT22;40108;53.152;5.844;2023-05-16T17:41:54;12.40;72.90
54202;DHT22;40108;53.152;5.844;2023-05-16T17:44:41;12.40;73.20
54202;DHT22;40108;53.152;5.844;2023-05-16T17:47:20;12.40;73.20
54202;DHT22;40108;53.152;5.844;2023-05-16T17:50:06;12.40;72.70
54202;DHT22;40108;53.152;5.844;2023-05-16T17:52:40;12.40;73.20
54202;DHT22;40108;53.152;5.844;2023-05-16T17:55:19;12.30;73.50
54202;DHT22;40108;53.152;5.844;2023-05-16T17:58:24;12.30;74.10
54202;DHT22;40108;53.152;5.844;2023-05-16T18:00:55;12.30;74.70
54202;DHT22;40108;53.152;5.844;2023-05-16T18:03:34;12.20;74.80
54202;DHT22;40108;53.152;5.844;2023-05-16T18:06:10;12.20;75.20
54202;DHT22;40108;53.152;5.844;2023-05-16T18:09:15;12.20;75.70
54202;DHT22;40108;53.152;5.844;2023-05-16T18:12:06;12.10;76.40
54202;DHT22;40108;53.152;5.844;2023-05-16T18:18:42;12.10;76.40
54202;DHT22;40108;53.152;5.844;2023-05-16T18:21:18;12.10;77.20
54202;DHT22;40108;53.152;5.844;2023-05-16T18:23:53;12.00;77.60
54202;DHT22;40108;53.152;5.844;2023-05-16T18:26:39;12.00;77.70
54202;DHT22;40108;53.152;5.844;2023-05-16T18:29:13;12.00;77.50
54202;DHT22;40108;53.152;5.844;2023-05-16T18:31:48;12.00;77.80
54202;DHT22;40108;53.152;5.844;2023-05-16T18:34:30;12.00;77.90
54202;DHT22;40108;53.152;5.844;2023-05-16T18:37:07;11.90;77.70
54202;DHT22;40108;53.152;5.844;2023-05-16T18:39:48;11.90;77.60
54202;DHT22;40108;53.152;5.844;2023-05-16T18:42:23;11.80;77.70
54202;DHT22;40108;53.152;5.844;2023-05-16T19:00:21;11.70;79.50
54202;DHT22;40108;53.152;5.844;2023-05-16T19:06:28;11.70;79.80
54202;DHT22;40108;53.152;5.844;2023-05-16T19:08:54;11.60;79.70
54202;DHT22;40108;53.152;5.844;2023-05-16T19:11:19;11.50;79.50
54202;DHT22;40108;53.152;5.844;2023-05-16T19:13:49;11.40;79.70
54202;DHT22;40108;53.152;5.844;2023-05-16T19:16:17;11.40;79.80
54202;DHT22;40108;53.152;5.844;2023-05-16T19:18:45;11.30;79.70
54202;DHT22;40108;53.152;5.844;2023-05-16T19:21:11;11.20;80.10
54202;DHT22;40108;53.152;5.844;2023-05-16T19:23:40;11.20;79.90
54202;DHT22;40108;53.152;5.844;2023-05-16T19:26:06;11.10;80.30
54202;DHT22;40108;53.152;5.844;2023-05-16T19:28:34;11.10;80.40
54202;DHT22;40108;53.152;5.844;2023-05-16T19:31:08;11.00;80.10
54202;DHT22;40108;53.152;5.844;2023-05-16T19:33:34;10.90;80.70
54202;DHT22;40108;53.152;5.844;2023-05-16T19:36:06;10.80;81.00
54202;DHT22;40108;53.152;5.844;2023-05-16T19:38:34;10.70;81.10
54202;DHT22;40108;53.152;5.844;2023-05-16T19:41:16;10.70;81.10
54202;DHT22;40108;53.152;5.844;2023-05-16T19:43:49;10.60;81.40
54202;DHT22;40108;53.152;5.844;2023-05-16T19:46:36;10.50;81.80
54202;DHT22;40108;53.152;5.844;2023-05-16T19:49:14;10.50;82.00
54202;DHT22;40108;53.152;5.844;2023-05-16T19:51:57;10.40;82.20
54202;DHT22;40108;53.152;5.844;2023-05-16T19:54:33;10.40;82.20
54202;DHT22;40108;53.152;5.844;2023-05-16T19:57:02;10.30;82.40
54202;DHT22;40108;53.152;5.844;2023-05-16T19:59:59;10.30;82.60
54202;DHT22;40108;53.152;5.844;2023-05-16T20:02:41;10.30;82.30
54202;DHT22;40108;53.152;5.844;2023-05-16T20:05:15;10.20;82.60
54202;DHT22;40108;53.152;5.844;2023-05-16T20:08:13;10.20;83.50
54202;DHT22;40108;53.152;5.844;2023-05-16T20:11:10;10.20;83.40
54202;DHT22;40108;53.152;5.844;2023-05-16T20:13:38;10.20;83.80
54202;DHT22;40108;53.152;5.844;2023-05-16T20:16:12;10.20;83.70
54202;DHT22;40108;53.152;5.844;2023-05-16T20:18:50;10.20;84.10
54202;DHT22;40108;53.152;5.844;2023-05-16T20:21:16;10.20;84.00
54202;DHT22;40108;53.152;5.844;2023-05-16T20:24:12;10.20;84.10
54202;DHT22;40108;53.152;5.844;2023-05-16T20:27:12;10.20;84.20
54202;DHT22;40108;53.152;5.844;2023-05-16T20:30:34;10.20;84.20
54202;DHT22;40108;53.152;5.844;2023-05-16T20:33:38;10.20;85.00
54202;DHT22;40108;53.152;5.844;2023-05-16T20:36:17;10.20;85.10
54202;DHT22;40108;53.152;5.844;2023-05-16T20:39:24;10.20;85.20
54202;DHT22;40108;53.152;5.844;2023-05-16T20:42:15;10.30;85.50
54202;DHT22;40108;53.152;5.844;2023-05-16T20:45:21;10.30;85.30
54202;DHT22;40108;53.152;5.844;2023-05-16T20:48:00;10.40;85.50
54202;DHT22;40108;53.152;5.844;2023-05-16T20:50:45;10.40;85.00
54202;DHT22;40108;53.152;5.844;2023-05-16T20:53:13;10.40;85.50
54202;DHT22;40108;53.152;5.844;2023-05-16T20:55:47;10.40;85.70
54202;DHT22;40108;53.152;5.844;2023-05-16T20:58:29;10.40;85.30
54202;DHT22;40108;53.152;5.844;2023-05-16T21:01:24;10.40;85.40
54202;DHT22;40108;53.152;5.844;2023-05-16T21:04:17;10.40;85.90
54202;DHT22;40108;53.152;5.844;2023-05-16T21:07:26;10.40;85.90
54202;DHT22;40108;53.152;5.844;2023-05-16T21:10:34;10.40;85.80
54202;DHT22;40108;53.152;5.844;2023-05-16T21:13:07;10.40;85.90
54202;DHT22;40108;53.152;5.844;2023-05-16T21:16:12;10.40;85.90
54202;DHT22;40108;53.152;5.844;2023-05-16T21:18:55;10.40;86.10
54202;DHT22;40108;53.152;5.844;2023-05-16T21:21:57;10.40;86.20
54202;DHT22;40108;53.152;5.844;2023-05-16T21:24:41;10.40;86.10
54202;DHT22;40108;53.152;5.844;2023-05-16T21:27:11;10.40;85.90
54202;DHT22;40108;53.152;5.844;2023-05-16T21:29:37;10.30;85.70
54202;DHT22;40108;53.152;5.844;2023-05-16T21:32:06;10.30;85.80
54202;DHT22;40108;53.152;5.844;2023-05-16T21:34:37;10.30;86.10
54202;DHT22;40108;53.152;5.844;2023-05-16T21:37:05;10.30;86.20
54202;DHT22;40108;53.152;5.844;2023-05-16T21:39:33;10.30;86.30
54202;DHT22;40108;53.152;5.844;2023-05-16T21:42:10;10.30;86.30
54202;DHT22;40108;53.152;5.844;2023-05-16T21:44:43;10.30;86.60
54202;DHT22;40108;53.152;5.844;2023-05-16T21:47:34;10.40;86.70
54202;DHT22;40108;53.152;5.844;2023-05-16T21:50:25;10.40;86.60
54202;DHT22;40108;53.152;5.844;2023-05-16T21:59:10;10.50;86.60
54202;DHT22;40108;53.152;5.844;2023-05-16T22:01:40;10.50;86.60
54202;DHT22;40108;53.152;5.844;2023-05-16T22:04:08;10.40;86.80
54202;DHT22;40108;53.152;5.844;2023-05-16T22:06:36;10.40;86.80
54202;DHT22;40108;53.152;5.844;2023-05-16T22:09:07;10.40;86.80
54202;DHT22;40108;53.152;5.844;2023-05-16T22:11:47;10.50;86.40
54202;DHT22;40108;53.152;5.844;2023-05-16T22:14:16;10.40;86.10
54202;DHT22;40108;53.152;5.844;2023-05-16T22:16:44;10.50;85.70
54202;DHT22;40108;53.152;5.844;2023-05-16T22:19:12;10.50;85.40
54202;DHT22;40108;53.152;5.844;2023-05-16T22:21:38;10.50;85.20
54202;DHT22;40108;53.152;5.844;2023-05-16T22:24:04;10.50;85.10
54202;DHT22;40108;53.152;5.844;2023-05-16T22:26:38;10.50;85.10
54202;DHT22;40108;53.152;5.844;2023-05-16T22:29:06;10.50;85.10
54202;DHT22;40108;53.152;5.844;2023-05-16T22:31:34;10.40;85.10
54202;DHT22;40108;53.152;5.844;2023-05-16T22:34:08;10.40;85.10
54202;DHT22;40108;53.152;5.844;2023-05-16T22:36:44;10.20;84.90
54202;DHT22;40108;53.152;5.844;2023-05-16T22:39:15;10.20;84.90
54202;DHT22;40108;53.152;5.844;2023-05-16T22:41:53;10.20;84.60
54202;DHT22;40108;53.152;5.844;2023-05-16T22:44:19;10.10;83.80
54202;DHT22;40108;53.152;5.844;2023-05-16T22:46:48;10.10;83.40
54202;DHT22;40108;53.152;5.844;2023-05-16T22:49:16;10.00;83.00
54202;DHT22;40108;53.152;5.844;2023-05-16T22:51:43;9.90;82.80
54202;DHT22;40108;53.152;5.844;2023-05-16T22:54:09;9.90;82.90
54202;DHT22;40108;53.152;5.844;2023-05-16T22:56:37;9.80;82.70
54202;DHT22;40108;53.152;5.844;2023-05-16T22:59:05;9.80;82.80
54202;DHT22;40108;53.152;5.844;2023-05-16T23:01:31;9.70;82.80
54202;DHT22;40108;53.152;5.844;2023-05-16T23:04:00;9.70;82.90
54202;DHT22;40108;53.152;5.844;2023-05-16T23:06:31;9.70;83.00
54202;DHT22;40108;53.152;5.844;2023-05-16T23:08:56;9.70;83.20
54202;DHT22;40108;53.152;5.844;2023-05-16T23:11:27;9.60;83.20
54202;DHT22;40108;53.152;5.844;2023-05-16T23:14:03;9.60;83.10
54202;DHT22;40108;53.152;5.844;2023-05-16T23:16:31;9.50;83.30
54202;DHT22;40108;53.152;5.844;2023-05-16T23:18:59;9.40;83.10
54202;DHT22;40108;53.152;5.844;2023-05-16T23:21:28;9.40;83.30
54202;DHT22;40108;53.152;5.844;2023-05-16T23:23:59;9.30;83.30
54202;DHT22;40108;53.152;5.844;2023-05-16T23:26:25;9.20;83.20
54202;DHT22;40108;53.152;5.844;2023-05-16T23:28:57;9.20;83.10
54202;DHT22;40108;53.152;5.844;2023-05-16T23:31:28;9.10;83.00
54202;DHT22;40108;53.152;5.844;2023-05-16T23:33:59;9.00;83.00
54202;DHT22;40108;53.152;5.844;2023-05-16T23:36:34;9.00;83.20
54202;DHT22;40108;53.152;5.844;2023-05-16T23:39:00;9.00;83.30
54202;DHT22;40108;53.152;5.844;2023-05-16T23:41:39;8.90;83.40
54202;DHT22;40108;53.152;5.844;2023-05-16T23:44:13;8.90;83.50
54202;DHT22;40108;53.152;5.844;2023-05-16T23:46:44;8.80;83.70
54202;DHT22;40108;53.152;5.844;2023-05-16T23:49:19;8.80;83.80
54202;DHT22;40108;53.152;5.844;2023-05-16T23:51:47;8.80;83.80
54202;DHT22;40108;53.152;5.844;2023-05-16T23:54:43;8.70;84.00